createdAt,value
2018-07-19T00:01:46.041Z,5.70
2018-07-19T00:04:13.707Z,4.87
2018-07-19T00:06:41.362Z,3.83
2018-07-19T00:09:09.820Z,4.73
2018-07-19T00:11:37.573Z,5.37
2018-07-19T00:14:05.276Z,3.23
2018-07-19T00:16:32.933Z,10.90
2018-07-19T00:19:00.659Z,4.43
2018-07-19T00:21:28.231Z,4.20
2018-07-19T00:23:55.893Z,7.60
2018-07-19T00:26:23.584Z,4.00
2018-07-19T00:28:51.267Z,10.07
2018-07-19T00:31:19.019Z,3.60
2018-07-19T00:33:46.678Z,2.53
2018-07-19T00:36:14.339Z,6.23
2018-07-19T00:38:41.994Z,3.10
2018-07-19T00:41:09.652Z,5.10
2018-07-19T00:43:37.608Z,2.60
2018-07-19T00:46:05.228Z,7.13
2018-07-19T00:48:32.809Z,1.87
2018-07-19T00:51:00.469Z,3.73
2018-07-19T00:53:28.122Z,3.40
2018-07-19T00:55:55.813Z,6.63
2018-07-19T00:58:23.494Z,5.97
2018-07-19T01:00:51.117Z,5.37
2018-07-19T01:03:18.738Z,7.03
2018-07-19T01:05:46.426Z,4.50
2018-07-19T01:08:14.046Z,3.00
2018-07-19T01:10:41.750Z,1.73
2018-07-19T01:13:09.427Z,2.47
2018-07-19T01:15:37.094Z,5.07
2018-07-19T01:18:05.213Z,5.70
2018-07-19T01:20:32.853Z,5.73
2018-07-19T01:23:00.535Z,2.13
2018-07-19T01:25:28.256Z,2.70
2018-07-19T01:27:55.892Z,7.40
2018-07-19T01:30:23.533Z,8.73
2018-07-19T01:32:51.263Z,8.20
2018-07-19T01:35:18.957Z,3.90
2018-07-19T01:37:46.655Z,3.73
2018-07-19T01:40:14.321Z,4.50
2018-07-19T01:42:43.238Z,5.23
2018-07-19T01:45:11.570Z,8.47
2018-07-19T01:47:39.472Z,2.17
2018-07-19T01:50:08.264Z,2.50
2018-07-19T01:52:35.985Z,4.47
2018-07-19T01:55:04.078Z,5.60
2018-07-19T01:57:31.773Z,4.10
2018-07-19T01:59:59.503Z,4.30
2018-07-19T02:02:27.275Z,2.93
2018-07-19T02:04:55.012Z,1.80
2018-07-19T02:07:22.704Z,2.57
2018-07-19T02:09:50.382Z,7.87
2018-07-19T02:12:18.073Z,7.20
2018-07-19T02:14:45.736Z,4.10
2018-07-19T02:17:13.376Z,6.30
2018-07-19T02:19:41.069Z,4.17
2018-07-19T02:22:08.728Z,6.80
2018-07-19T02:24:36.390Z,5.80
2018-07-19T02:27:04.100Z,7.33
2018-07-19T02:29:31.672Z,5.13
2018-07-19T02:31:59.274Z,3.53
2018-07-19T02:34:26.963Z,4.67
2018-07-19T02:37:00.536Z,4.50
2018-07-19T02:39:28.206Z,9.47
2018-07-19T02:41:55.939Z,3.30
2018-07-19T02:44:23.542Z,6.03
2018-07-19T02:46:51.188Z,4.33
2018-07-19T02:49:18.913Z,3.93
2018-07-19T02:51:46.579Z,4.03
2018-07-19T02:54:14.218Z,4.50
2018-07-19T02:56:41.874Z,13.30
2018-07-19T02:59:09.598Z,5.97
2018-07-19T03:01:37.300Z,2.23
2018-07-19T03:04:04.952Z,5.20
2018-07-19T03:06:32.636Z,5.80
2018-07-19T03:09:00.278Z,3.50
2018-07-19T03:11:27.929Z,9.00
2018-07-19T03:13:55.547Z,8.43
2018-07-19T03:16:23.287Z,9.40
2018-07-19T03:18:50.935Z,12.40
2018-07-19T03:21:18.588Z,5.27
2018-07-19T03:23:46.261Z,3.10
2018-07-19T03:26:14.060Z,3.93
2018-07-19T03:28:41.755Z,5.27
2018-07-19T03:31:09.703Z,4.80
2018-07-19T03:33:37.286Z,6.43
2018-07-19T03:36:05.059Z,5.70
2018-07-19T03:38:32.742Z,3.97
2018-07-19T03:41:00.403Z,6.40
2018-07-19T03:43:28.058Z,3.33
2018-07-19T03:45:55.710Z,5.17
2018-07-19T03:48:23.446Z,9.47
2018-07-19T03:50:51.161Z,6.53
2018-07-19T03:53:18.858Z,3.53
2018-07-19T03:55:46.557Z,4.47
2018-07-19T03:58:14.352Z,3.97
2018-07-19T04:00:42.031Z,4.77
2018-07-19T04:03:09.651Z,8.60
2018-07-19T04:05:37.328Z,4.37
2018-07-19T04:08:05.200Z,1.67
2018-07-19T04:10:32.882Z,4.70
2018-07-19T04:13:01.705Z,6.00
2018-07-19T04:15:29.323Z,8.17
2018-07-19T04:17:57.788Z,8.60
2018-07-19T04:20:26.517Z,2.80
2018-07-19T04:22:54.921Z,5.70
2018-07-19T04:25:23.071Z,3.33
2018-07-19T04:27:51.001Z,6.67
2018-07-19T04:30:18.673Z,7.27
2018-07-19T04:32:46.371Z,2.80
2018-07-19T04:35:13.959Z,3.97
2018-07-19T04:37:41.620Z,20.20
2018-07-19T04:40:09.337Z,6.33
2018-07-19T04:42:37.201Z,7.13
2018-07-19T04:45:05.392Z,7.23
2018-07-19T04:47:33.052Z,7.30
2018-07-19T04:50:00.642Z,2.37
2018-07-19T04:52:28.302Z,4.90
2018-07-19T04:54:56.297Z,5.13
2018-07-19T04:57:24.032Z,4.93
2018-07-19T04:59:51.742Z,13.90
2018-07-19T05:02:19.750Z,13.50
2018-07-19T05:04:47.358Z,5.20
2018-07-19T05:07:15.000Z,4.70
2018-07-19T05:09:42.917Z,5.97
2018-07-19T05:12:10.594Z,4.60
2018-07-19T05:14:38.288Z,3.93
2018-07-19T05:17:05.956Z,5.00
2018-07-19T05:19:33.567Z,5.43
2018-07-19T05:22:01.226Z,5.70
2018-07-19T05:24:28.909Z,4.67
2018-07-19T05:26:56.493Z,3.20
2018-07-19T05:29:24.187Z,2.90
2018-07-19T05:31:51.838Z,9.30
2018-07-19T05:34:26.188Z,6.80
2018-07-19T05:36:53.867Z,6.73
2018-07-19T05:39:21.480Z,3.47
2018-07-19T05:41:49.165Z,10.67
2018-07-19T05:44:16.790Z,4.00
2018-07-19T05:46:44.520Z,6.03
2018-07-19T05:49:12.201Z,4.43
2018-07-19T05:51:39.824Z,7.80
2018-07-19T05:54:07.494Z,4.17
2018-07-19T05:56:35.149Z,6.50
2018-07-19T05:59:02.811Z,4.00
2018-07-19T06:01:30.450Z,6.37
2018-07-19T06:03:58.118Z,9.80
2018-07-19T06:06:25.758Z,7.20
2018-07-19T06:08:53.413Z,11.20
2018-07-19T06:11:21.101Z,6.17
2018-07-19T06:13:48.759Z,7.97
2018-07-19T06:16:16.473Z,11.30
2018-07-19T06:18:44.229Z,10.97
2018-07-19T06:21:11.909Z,6.60
2018-07-19T06:23:39.599Z,9.87
2018-07-19T06:26:07.244Z,4.73
2018-07-19T06:28:35.045Z,14.13
2018-07-19T06:31:02.877Z,7.23
2018-07-19T06:33:30.637Z,11.27
2018-07-19T06:35:58.728Z,17.70
2018-07-19T06:38:26.429Z,7.37
2018-07-19T06:40:54.148Z,14.77
2018-07-19T06:43:21.942Z,8.33
2018-07-19T06:45:49.610Z,4.63
2018-07-19T06:48:17.290Z,7.60
2018-07-19T06:50:44.992Z,12.63
2018-07-19T06:53:12.674Z,7.23
2018-07-19T06:55:40.368Z,10.00
2018-07-19T06:58:08.022Z,5.40
2018-07-19T07:00:35.693Z,8.43
2018-07-19T07:03:03.354Z,8.00
2018-07-19T07:05:31.078Z,5.60
2018-07-19T07:07:58.753Z,10.27
2018-07-19T07:10:26.377Z,12.43
2018-07-19T07:12:54.143Z,15.47
2018-07-19T07:15:21.767Z,10.03
2018-07-19T07:17:49.435Z,9.73
2018-07-19T07:20:17.143Z,7.50
2018-07-19T07:22:44.833Z,7.70
2018-07-19T07:25:12.568Z,6.33
2018-07-19T07:27:40.339Z,14.30
2018-07-19T07:30:08.050Z,9.93
2018-07-19T07:32:35.792Z,5.57
2018-07-19T07:35:04.407Z,7.90
2018-07-19T07:37:32.094Z,7.60
2018-07-19T07:39:59.778Z,11.37
2018-07-19T07:42:27.544Z,17.70
2018-07-19T07:44:55.366Z,12.00
2018-07-19T07:47:23.383Z,6.30
2018-07-19T07:49:51.055Z,8.33
2018-07-19T07:52:18.761Z,11.43
2018-07-19T07:54:46.478Z,6.97
2018-07-19T07:57:14.194Z,11.80
2018-07-19T07:59:41.881Z,7.67
2018-07-19T08:02:10.014Z,12.67
2018-07-19T08:04:38.550Z,8.47
2018-07-19T08:07:06.225Z,6.07
2018-07-19T08:09:33.984Z,14.77
2018-07-19T08:12:02.000Z,8.90
2018-07-19T08:14:29.742Z,14.23
2018-07-19T08:16:57.606Z,17.10
2018-07-19T08:19:25.266Z,11.43
2018-07-19T08:21:52.956Z,8.00
2018-07-19T08:24:20.772Z,8.07
2018-07-19T08:26:48.550Z,11.50
2018-07-19T08:29:16.295Z,9.27
2018-07-19T08:31:44.197Z,9.73
2018-07-19T08:34:11.975Z,9.40
2018-07-19T08:36:39.920Z,9.43
2018-07-19T08:39:10.754Z,18.93
2018-07-19T08:41:38.502Z,7.97
2018-07-19T08:46:40.791Z,11.33
2018-07-19T08:49:08.508Z,12.87
2018-07-19T08:51:36.286Z,9.97
2018-07-19T08:54:03.956Z,12.20
2018-07-19T08:56:31.764Z,14.27
2018-07-19T08:58:59.422Z,16.37
2018-07-19T09:01:27.073Z,6.00
2018-07-19T09:03:54.844Z,7.80
2018-07-19T09:06:22.453Z,6.90
2018-07-19T09:08:50.114Z,12.17
2018-07-19T09:11:18.080Z,7.67
2018-07-19T09:13:46.348Z,6.30
2018-07-19T09:16:14.012Z,15.63
2018-07-19T09:18:41.707Z,13.33
2018-07-19T09:21:09.486Z,10.60
2018-07-19T09:23:37.271Z,14.20
2018-07-19T09:26:04.954Z,11.20
2018-07-19T09:28:32.622Z,8.63
2018-07-19T09:31:00.381Z,14.30
2018-07-19T09:33:28.087Z,8.93
2018-07-19T09:35:55.727Z,10.40
2018-07-19T09:38:23.488Z,9.63
2018-07-19T09:40:51.240Z,13.23
2018-07-19T09:43:18.988Z,13.43
2018-07-19T09:45:46.768Z,11.77
2018-07-19T09:48:14.450Z,11.90
2018-07-19T09:50:42.181Z,10.77
2018-07-19T09:53:09.870Z,10.37
2018-07-19T09:55:37.658Z,11.53
2018-07-19T09:58:05.673Z,11.07
2018-07-19T10:01:37.994Z,10.10
2018-07-19T10:04:06.159Z,11.63
2018-07-19T10:06:33.803Z,10.50
2018-07-19T10:09:01.473Z,8.83
2018-07-19T10:11:29.188Z,9.20
2018-07-19T10:13:56.868Z,11.47
2018-07-19T10:16:24.515Z,9.57
2018-07-19T10:18:52.199Z,8.03
2018-07-19T10:21:19.941Z,12.67
2018-07-19T10:23:47.600Z,10.30
2018-07-19T10:26:15.221Z,16.10
2018-07-19T10:28:43.099Z,15.03
2018-07-19T10:31:10.838Z,10.83
2018-07-19T10:33:38.514Z,10.70
2018-07-19T10:36:06.271Z,7.53
2018-07-19T10:38:33.909Z,14.70
2018-07-19T10:41:01.662Z,13.93
2018-07-19T10:43:29.375Z,13.80
2018-07-19T10:45:57.248Z,11.03
2018-07-19T10:48:24.890Z,15.13
2018-07-19T10:50:52.558Z,7.17
2018-07-19T10:53:20.150Z,7.63
2018-07-19T10:55:47.914Z,15.13
2018-07-19T10:58:15.638Z,9.93
2018-07-19T11:00:43.462Z,10.53
2018-07-19T11:03:11.122Z,11.87
2018-07-19T11:05:38.871Z,8.30
2018-07-19T11:08:06.539Z,11.20
2018-07-19T11:10:34.291Z,17.50
2018-07-19T11:13:02.065Z,6.20
2018-07-19T11:15:29.846Z,8.87
2018-07-19T11:17:57.465Z,6.60
2018-07-19T11:20:25.248Z,7.23
2018-07-19T11:22:52.962Z,7.03
2018-07-19T11:25:21.163Z,13.37
2018-07-19T11:27:48.839Z,9.53
2018-07-19T11:30:16.623Z,7.27
2018-07-19T11:32:44.395Z,10.73
2018-07-19T11:35:12.099Z,12.23
2018-07-19T11:37:39.802Z,6.70
2018-07-19T11:40:07.579Z,9.93
2018-07-19T11:42:35.303Z,5.67
2018-07-19T11:45:02.994Z,8.20
2018-07-19T11:47:30.756Z,6.97
2018-07-19T11:49:58.546Z,7.67
2018-07-19T11:52:26.295Z,7.87
2018-07-19T11:54:54.012Z,7.00
2018-07-19T11:57:21.913Z,8.20
2018-07-19T11:59:49.620Z,7.43
2018-07-19T12:02:17.268Z,6.90
2018-07-19T12:04:45.000Z,8.17
2018-07-19T12:07:12.707Z,7.40
2018-07-19T12:09:40.447Z,7.63
2018-07-19T12:12:08.262Z,9.13
2018-07-19T12:14:35.921Z,10.33
2018-07-19T12:17:03.667Z,5.60
2018-07-19T12:19:31.393Z,7.53
2018-07-19T12:21:59.311Z,8.93
2018-07-19T12:24:27.019Z,5.33
2018-07-19T12:26:54.740Z,9.10
2018-07-19T12:29:22.431Z,5.93
2018-07-19T12:31:50.149Z,5.33
2018-07-19T12:34:17.909Z,7.00
2018-07-19T12:36:45.675Z,5.20
2018-07-19T12:39:13.408Z,9.60
2018-07-19T12:41:41.590Z,5.53
2018-07-19T12:44:09.516Z,8.73
2018-07-19T12:46:37.597Z,7.70
2018-07-19T12:49:05.790Z,4.90
2018-07-19T12:51:33.647Z,9.73
2018-07-19T12:54:01.436Z,12.70
2018-07-19T12:56:29.171Z,6.60
2018-07-19T12:58:57.240Z,5.13
2018-07-19T13:01:24.840Z,8.87
2018-07-19T13:03:52.490Z,4.43
2018-07-19T13:06:20.153Z,5.33
2018-07-19T13:08:47.806Z,5.00
2018-07-19T13:11:15.487Z,5.20
2018-07-19T13:13:43.363Z,6.50
2018-07-19T13:16:11.746Z,4.20
2018-07-19T13:18:39.414Z,8.40
2018-07-19T13:21:07.214Z,5.13
2018-07-19T13:23:35.022Z,10.27
2018-07-19T13:26:02.857Z,5.97
2018-07-19T13:28:30.797Z,6.60
2018-07-19T13:30:58.479Z,6.90
2018-07-19T13:33:26.193Z,5.67
2018-07-19T13:35:53.909Z,7.23
2018-07-19T13:38:21.531Z,13.23
2018-07-19T13:40:49.821Z,6.57
2018-07-19T13:43:17.494Z,6.53
2018-07-19T13:45:45.261Z,8.20
2018-07-19T13:48:12.867Z,5.83
2018-07-19T13:50:40.716Z,7.07
2018-07-19T13:53:41.093Z,10.80
2018-07-19T13:56:09.190Z,10.37
2018-07-19T13:58:37.621Z,9.90
2018-07-19T14:01:05.382Z,9.97
2018-07-19T14:03:33.270Z,14.53
2018-07-19T14:06:01.404Z,10.20
2018-07-19T14:08:29.034Z,9.50
2018-07-19T14:10:56.810Z,8.00
2018-07-19T14:13:24.489Z,10.53
2018-07-19T14:15:53.105Z,7.73
2018-07-19T14:18:20.975Z,4.90
2018-07-19T14:20:49.129Z,5.30
2018-07-19T14:23:16.824Z,6.03
2018-07-19T14:25:44.490Z,5.80
2018-07-19T14:28:12.415Z,6.27
2018-07-19T14:30:40.403Z,6.67
2018-07-19T14:33:08.544Z,5.93
2018-07-19T14:35:36.289Z,5.80
2018-07-19T14:38:03.891Z,7.47
2018-07-19T14:40:31.516Z,7.17
2018-07-19T14:42:59.256Z,4.53
2018-07-19T14:45:26.901Z,4.97
2018-07-19T14:47:54.635Z,4.50
2018-07-19T14:50:22.497Z,8.10
2018-07-19T14:52:50.266Z,7.13
2018-07-19T14:55:17.984Z,4.97
2018-07-19T14:57:45.691Z,12.03
2018-07-19T15:00:13.439Z,5.00
2018-07-19T15:02:41.281Z,7.13
2018-07-19T15:05:09.010Z,4.70
2018-07-19T15:07:36.767Z,4.43
2018-07-19T15:10:04.958Z,3.90
2018-07-19T15:12:32.616Z,4.83
2018-07-19T15:15:00.286Z,4.03
2018-07-19T15:17:27.916Z,9.70
2018-07-19T15:19:55.667Z,3.80
2018-07-19T15:22:23.313Z,4.23
2018-07-19T15:24:51.039Z,3.63
2018-07-19T15:27:18.846Z,5.93
2018-07-19T15:29:46.549Z,5.10
2018-07-19T15:32:14.235Z,4.50
2018-07-19T15:34:41.893Z,5.20
2018-07-19T15:37:09.631Z,4.33
2018-07-19T15:39:37.228Z,5.40
2018-07-19T15:42:04.902Z,7.33
2018-07-19T15:44:32.544Z,4.40
2018-07-19T15:47:00.267Z,5.10
2018-07-19T15:49:27.986Z,4.63
2018-07-19T15:51:55.734Z,5.93
2018-07-19T15:54:23.478Z,4.47
2018-07-19T15:56:51.138Z,5.13
2018-07-19T15:59:18.944Z,4.00
2018-07-19T16:01:46.647Z,8.50
2018-07-19T16:04:14.305Z,4.90
2018-07-19T16:06:42.101Z,5.50
2018-07-19T16:09:11.290Z,4.50
2018-07-19T16:11:39.056Z,5.80
2018-07-19T16:14:06.908Z,9.67
2018-07-19T16:16:35.120Z,7.20
2018-07-19T16:19:02.775Z,4.33
2018-07-19T16:21:30.569Z,6.93
2018-07-19T16:23:58.249Z,8.43
2018-07-19T16:26:25.950Z,3.70
2018-07-19T16:28:53.548Z,3.80
2018-07-19T16:31:21.155Z,5.13
2018-07-19T16:33:48.822Z,5.33
2018-07-19T16:36:16.514Z,5.20
2018-07-19T16:38:44.170Z,5.97
2018-07-19T16:41:11.828Z,3.90
2018-07-19T16:43:39.441Z,5.03
2018-07-19T16:46:07.267Z,6.27
2018-07-19T16:48:34.949Z,5.27
2018-07-19T16:51:02.575Z,3.60
2018-07-19T16:53:30.295Z,3.53
2018-07-19T16:55:57.983Z,4.70
2018-07-19T16:58:25.708Z,4.30
2018-07-19T17:00:53.497Z,5.60
2018-07-19T17:03:21.194Z,4.70
2018-07-19T17:05:48.875Z,4.87
2018-07-19T17:08:16.519Z,3.73
2018-07-19T17:10:44.156Z,4.93
2018-07-19T17:13:11.865Z,6.20
2018-07-19T17:15:39.539Z,4.30
2018-07-19T17:18:07.262Z,8.33
2018-07-19T17:20:34.947Z,5.00
2018-07-19T17:23:02.748Z,7.07
2018-07-19T17:25:30.506Z,4.00
2018-07-19T17:27:58.178Z,4.07
2018-07-19T17:30:25.919Z,4.60
2018-07-19T17:32:53.523Z,4.67
2018-07-19T17:35:21.395Z,3.90
2018-07-19T17:37:49.055Z,5.10
2018-07-19T17:40:16.794Z,5.10
2018-07-19T17:42:44.495Z,4.60
2018-07-19T17:45:12.153Z,4.30
2018-07-19T17:47:39.893Z,8.27
2018-07-19T17:50:08.143Z,5.30
2018-07-19T17:52:35.893Z,3.73
2018-07-19T17:55:03.571Z,4.33
2018-07-19T17:57:31.334Z,5.37
2018-07-19T17:59:59.075Z,8.57
2018-07-19T18:02:26.843Z,4.80
2018-07-19T18:04:54.532Z,11.17
2018-07-19T18:07:22.228Z,4.47
2018-07-19T18:09:49.828Z,9.43
2018-07-19T18:12:17.549Z,6.80
2018-07-19T18:14:45.170Z,5.13
2018-07-19T18:17:12.839Z,5.47
2018-07-19T18:19:40.518Z,5.23
2018-07-19T18:22:08.258Z,8.33
2018-07-19T18:24:35.989Z,5.73
2018-07-19T18:27:03.642Z,7.40
2018-07-19T18:29:31.276Z,5.73
2018-07-19T18:31:58.908Z,5.73
2018-07-19T18:34:26.539Z,9.13
2018-07-19T18:36:54.129Z,6.60
2018-07-19T18:39:21.757Z,6.20
2018-07-19T18:41:49.517Z,7.17
2018-07-19T18:44:17.229Z,12.83
2018-07-19T18:46:44.889Z,7.37
2018-07-19T18:49:12.735Z,6.37
2018-07-19T18:51:40.613Z,6.60
2018-07-19T18:54:08.318Z,9.23
2018-07-19T18:56:35.965Z,8.53
2018-07-19T18:59:03.646Z,7.80
2018-07-19T19:01:31.438Z,6.40
2018-07-19T19:03:59.006Z,7.70
2018-07-19T19:06:26.729Z,11.00
2018-07-19T19:08:54.337Z,12.30
2018-07-19T19:11:22.059Z,8.93
2018-07-19T19:13:49.650Z,6.97
2018-07-19T19:16:17.401Z,16.13
2018-07-19T19:18:45.528Z,10.40
2018-07-19T19:21:13.812Z,9.73
2018-07-19T19:23:41.606Z,6.97
2018-07-19T19:26:09.270Z,9.03
2018-07-19T19:28:36.972Z,6.73
2018-07-19T19:31:04.784Z,7.73
2018-07-19T19:33:32.663Z,11.10
2018-07-19T19:36:00.473Z,10.67
2018-07-19T19:38:28.143Z,10.20
2018-07-19T19:40:56.310Z,9.60
2018-07-19T19:43:24.384Z,15.83
2018-07-19T19:45:52.017Z,18.23
2018-07-19T19:48:19.755Z,12.87
2018-07-19T19:50:47.405Z,9.60
2018-07-19T19:53:15.039Z,9.27
2018-07-19T19:55:42.697Z,10.30
2018-07-19T19:58:10.359Z,8.00
2018-07-19T20:00:38.157Z,9.80
2018-07-19T20:03:05.839Z,12.83
2018-07-19T20:05:33.734Z,11.00
2018-07-19T20:08:01.457Z,7.03
2018-07-19T20:10:29.186Z,7.50
2018-07-19T20:12:56.917Z,8.37
2018-07-19T20:15:24.686Z,14.03
2018-07-19T20:17:52.403Z,10.47
2018-07-19T20:20:20.173Z,10.80
2018-07-19T20:22:47.958Z,8.10
2018-07-19T20:25:15.640Z,11.53
2018-07-19T20:27:43.486Z,7.90
2018-07-19T20:30:11.210Z,13.00
2018-07-19T20:32:38.928Z,12.30
2018-07-19T20:35:06.785Z,16.00
2018-07-19T20:37:34.634Z,14.80
2018-07-19T20:40:02.362Z,9.90
2018-07-19T20:42:30.006Z,11.00
2018-07-19T20:44:57.628Z,13.27
2018-07-19T20:47:25.305Z,11.30
2018-07-19T20:49:53.024Z,10.17
2018-07-19T20:52:20.730Z,14.87
2018-07-19T20:54:48.539Z,13.80
2018-07-19T20:57:16.253Z,12.13
2018-07-19T20:59:43.933Z,16.80
2018-07-19T21:02:11.861Z,10.13
2018-07-19T21:04:39.553Z,13.13
2018-07-19T21:07:07.292Z,12.93
2018-07-19T21:09:34.934Z,11.80
2018-07-19T21:12:02.689Z,14.97
2018-07-19T21:14:30.395Z,13.73
2018-07-19T21:16:58.141Z,10.87
2018-07-19T21:19:25.742Z,10.63
2018-07-19T21:21:53.473Z,13.07
2018-07-19T21:24:21.250Z,12.80
2018-07-19T21:26:48.911Z,17.00
2018-07-19T21:29:16.520Z,15.80
2018-07-19T21:31:44.105Z,16.00
2018-07-19T21:34:11.776Z,17.80
2018-07-19T21:36:39.441Z,13.50
2018-07-19T21:39:09.105Z,12.00
2018-07-19T21:41:36.794Z,12.60
2018-07-19T21:44:04.456Z,11.83
2018-07-19T21:46:32.108Z,11.83
2018-07-19T21:49:00.212Z,12.57
2018-07-19T21:51:27.918Z,14.37
2018-07-19T21:53:55.590Z,16.83
2018-07-19T21:56:23.294Z,15.90
2018-07-19T21:58:51.062Z,28.03
2018-07-19T22:01:18.932Z,17.30
2018-07-19T22:03:47.592Z,16.47
2018-07-19T22:06:15.285Z,15.83
2018-07-19T22:08:43.255Z,16.30
2018-07-19T22:11:11.235Z,16.43
2018-07-19T22:13:38.890Z,25.50
2018-07-19T22:16:06.555Z,18.30
2018-07-19T22:18:34.248Z,17.47
2018-07-19T22:21:01.911Z,25.00
2018-07-19T22:26:03.985Z,19.67
2018-07-19T22:28:31.598Z,15.27
2018-07-19T22:30:59.316Z,19.13
2018-07-19T22:33:26.963Z,26.13
2018-07-19T22:35:54.962Z,15.80
2018-07-19T22:40:57.134Z,22.47
2018-07-19T22:43:24.760Z,14.07
2018-07-19T22:45:52.368Z,16.27
2018-07-19T22:48:20.070Z,15.47
2018-07-19T22:50:47.634Z,14.20
2018-07-19T22:53:15.240Z,16.57
2018-07-19T22:55:42.871Z,13.83
2018-07-19T22:58:10.518Z,17.23
2018-07-19T23:00:38.153Z,15.43
2018-07-19T23:03:05.827Z,14.33
2018-07-19T23:05:33.473Z,14.93
2018-07-19T23:08:01.146Z,18.17
2018-07-19T23:10:28.779Z,25.27
2018-07-19T23:12:56.377Z,18.60
2018-07-19T23:15:24.028Z,17.43
2018-07-19T23:17:51.727Z,16.80
2018-07-19T23:20:19.387Z,14.10
2018-07-19T23:22:54.300Z,20.80
2018-07-19T23:25:22.002Z,14.80
2018-07-19T23:27:49.844Z,16.93
2018-07-19T23:30:17.998Z,15.77
2018-07-19T23:32:45.740Z,16.67
2018-07-19T23:35:13.398Z,16.07
2018-07-19T23:37:42.266Z,14.90
2018-07-19T23:40:14.492Z,14.00
2018-07-19T23:42:45.471Z,15.50
2018-07-19T23:45:16.490Z,16.40
2018-07-19T23:47:44.850Z,13.90
2018-07-19T23:50:12.500Z,22.53
2018-07-19T23:52:40.118Z,14.03
2018-07-19T23:55:07.784Z,15.50
2018-07-19T23:57:35.469Z,16.63
